• Join FlightAware (Why Join?)
  • Login
  • US Flag 
05:37AM EDT


 

Airport Tracker/Info


-or-


 

Live Flight TrackerFlight Track Log ✈ AWE9325 ✈ 05-May-2013 ✈ KLAX - KPHX

Flight Track Log - Related Links

Times and Time Zones

All times are in EDT time to prevent confusion due to time zone crossing. See the AWE9325 flight status page for this flight to view local times or setup timezone preferences in your user account.

Time Position Orientation Groundspeed Altitude Reporting Facility
EDT Latitude Longitude Course Direction KTS MPH feet Rate Location/Type
07:47PM 33.9240 -118.0695 94° East  Level Estimated
07:48PM 33.9176 -117.9566 94° East  Level Estimated
07:49PM 33.9111 -117.8438 94° East  Level Estimated
07:50PM 33.9046 -117.7310 94° East  Level Estimated
07:51PM 33.8979 -117.6182 94° East  Level Estimated
07:52PM 33.8911 -117.5055 94° East  Level Estimated
07:53PM 33.8842 -117.3927 94° East  Level Estimated
07:54PM 33.8772 -117.2800 94° East  Level Estimated
07:55PM 33.8701 -117.1673 94° East  Level Estimated
07:56PM 33.8629 -117.0546 94° East  Level Estimated
07:57PM 33.8556 -116.9419 94° East  Level Estimated
07:58PM 33.8482 -116.8293 94° East  Level Estimated
07:59PM 33.8407 -116.7166 95° East  Level Estimated
08:00PM 33.8331 -116.6040 95° East  Level Estimated
08:01PM 33.8254 -116.4914 95° East  Level Estimated
08:02PM 33.8176 -116.3789 95° East  Level Estimated
08:03PM 33.8097 -116.2663 95° East  Level Estimated
08:04PM 33.8017 -116.1538 95° East  Level Estimated
08:05PM 33.7936 -116.0413 95° East  Level Estimated
08:06PM 33.7853 -115.9288 95° East  Level Estimated
08:07PM 33.7770 -115.8163 95° East  Level Estimated
08:08PM 33.7686 -115.7039 95° East  Level Estimated
08:09PM 33.7601 -115.5915 95° East  Level Estimated
08:10PM 33.7514 -115.4790 95° East  Level Estimated
08:11PM 33.7427 -115.3667 95° East  Level Estimated
08:12PM 33.7339 -115.2543 95° East  Level Estimated
08:13PM 33.7250 -115.1420 95° East  Level Estimated
08:14PM 33.7159 -115.0297 95° East  Level Estimated
08:15PM 33.7068 -114.9174 96° East  Level Estimated
08:16PM 33.6976 -114.8051 96° East  Level Estimated
08:17PM 33.6882 -114.6929 96° East  Level Estimated
08:18PM 33.6788 -114.5807 96° East  Level Estimated
08:19PM 33.6692 -114.4685 96° East  Level Estimated
08:20PM 33.6596 -114.3563 96° East  Level Estimated
08:21PM 33.6498 -114.2442 96° East  Level Estimated
08:22PM 33.6400 -114.1321 96° East  Level Estimated
08:23PM 33.6301 -114.0200 96° East  Level Estimated
08:24PM 33.6193 -113.8995 96° East  Level Estimated
08:25PM 33.6083 -113.7790 96° East  Level Estimated
08:26PM 33.5973 -113.6586 96° East  Level Estimated
08:27PM 33.5861 -113.5381 96° East  Level Estimated
08:28PM 33.5748 -113.4178 96° East  Level Estimated
08:29PM 33.5634 -113.2974 96° East  Level Estimated
08:30PM 33.5519 -113.1771 97° East  Level Estimated
08:31PM 33.5403 -113.0568 97° East  Level Estimated
08:32PM 33.5286 -112.9365 97° East  Level Estimated
08:33PM 33.5167 -112.8163 97° East  Level Estimated
08:34PM 33.5047 -112.6961 97° East  Level Estimated
08:35PM 33.4927 -112.5759 97° East  Level Estimated
08:36PM 33.4804 -112.4558 97° East  Level Estimated
08:37PM 33.4681 -112.3357 97° East  Level Estimated
08:38PM 33.4557 -112.2156 97° East  Level Estimated
08:39PM 33.4431 -112.0956 97° East  Level Estimated
08:40PM 33.4343 -112.0116 97° East  Level Estimated
08:41PM 33.4343 -112.0116 231° Southwest  Level Estimated
08:42PM 33.4343 -112.0116 231° Southwest  Level Estimated
08:43PM 33.4343 -112.0116 231° Southwest  Level Estimated
08:44PM 33.4343 -112.0116 231° Southwest  Level Estimated